Skip Navigation LinksHome page > Tools > METAR decoder Skip Navigation Links

METAR decoder

Settings

METAR

Chicago O'Hare Intl, Chicago

For information only: do not use for flight planning or navigation.
Latest weather
Observation time Thursday, November 21, 2019 3:51 PM CST
Local time Thursday, November 21, 2019 4:29 PM CST
Flight conditions Marginal Visual Meteorological Conditions
Winds
Wind direction West (260°)
Wind speed 20 mph
Wind gusting to 30 mph
Peak wind speed 34 mph, 2:57 PM
Peak wind direction West (280°)
Visibility 10 mi.
Sky condition
Ceiling 1,500 ft. overcast
Cloud layer overcast 1,500 ft.
Temperature 48°F
Dewpoint 43°F
Altimeter 29.77 in.Hg
Derived measurements
Relative humidity 83%
Wind chill 41°F
Density altitude 248 ft.
Sea-level pressure 29.78 in.Hg
Remarks
System requires maintenance.
Automated weather observing station with precipitation discriminator.
METAR KORD 212151Z 26017G26KT 10SM OVC015 09/06 A2977 RMK AO2 PK WND 28030/2057 SLP085 SLP063 T00890061 $

InnerDrive.Weather 4.0.6770.0 Release CLR 4.0.30319.42000
Copyright ©2018 Inner Drive Technology. All rights reserved. Portions Copyright ©1986-2018 David Braverman.

Find weather

Site navigation


Skip Navigation Links

Place info

Page info

PayPal - The safer, easier way to pay online!

Return home.

Copyright ©2019 Inner Drive Technology. Purveyors of fine, hand-crafted computer software. Page printed 2019-11-21T22:29:38 UTC.